sensor_id;sensor_type;location;lat;lon;timestamp;temperature;humidity
15676;DHT22;7938;47.666;9.434;2023-07-31T04:01:35;12.60;99.90
15676;DHT22;7938;47.666;9.434;2023-07-31T04:04:06;12.70;99.90
15676;DHT22;7938;47.666;9.434;2023-07-31T04:06:33;12.70;99.90
15676;DHT22;7938;47.666;9.434;2023-07-31T04:09:00;12.60;99.90
15676;DHT22;7938;47.666;9.434;2023-07-31T04:11:27;12.60;99.90
15676;DHT22;7938;47.666;9.434;2023-07-31T04:13:53;12.60;99.90
15676;DHT22;7938;47.666;9.434;2023-07-31T04:16:20;12.60;99.90
15676;DHT22;7938;47.666;9.434;2023-07-31T04:18:48;12.70;99.90
15676;DHT22;7938;47.666;9.434;2023-07-31T04:21:15;12.80;99.90
15676;DHT22;7938;47.666;9.434;2023-07-31T04:23:43;12.90;99.90
15676;DHT22;7938;47.666;9.434;2023-07-31T04:26:10;13.00;99.90
15676;DHT22;7938;47.666;9.434;2023-07-31T04:28:37;13.00;99.90
15676;DHT22;7938;47.666;9.434;2023-07-31T04:31:03;13.10;99.90
15676;DHT22;7938;47.666;9.434;2023-07-31T04:33:30;13.10;99.90
15676;DHT22;7938;47.666;9.434;2023-07-31T04:35:59;13.20;99.90
15676;DHT22;7938;47.666;9.434;2023-07-31T04:38:26;13.30;99.90
15676;DHT22;7938;47.666;9.434;2023-07-31T04:40:53;13.60;99.90
15676;DHT22;7938;47.666;9.434;2023-07-31T04:43:19;13.60;99.90
15676;DHT22;7938;47.666;9.434;2023-07-31T04:45:46;13.90;99.90
15676;DHT22;7938;47.666;9.434;2023-07-31T04:48:14;14.00;99.90
15676;DHT22;7938;47.666;9.434;2023-07-31T04:50:41;14.40;99.90
15676;DHT22;7938;47.666;9.434;2023-07-31T04:53:09;14.40;99.90
15676;DHT22;7938;47.666;9.434;2023-07-31T04:55:36;14.60;99.90
15676;DHT22;7938;47.666;9.434;2023-07-31T04:58:02;14.70;99.90
15676;DHT22;7938;47.666;9.434;2023-07-31T05:00:29;15.00;99.90
15676;DHT22;7938;47.666;9.434;2023-07-31T05:02:56;15.00;99.90
15676;DHT22;7938;47.666;9.434;2023-07-31T05:05:23;15.00;99.90
15676;DHT22;7938;47.666;9.434;2023-07-31T05:07:50;15.20;99.90
15676;DHT22;7938;47.666;9.434;2023-07-31T05:10:18;15.20;99.90
15676;DHT22;7938;47.666;9.434;2023-07-31T05:12:45;15.30;99.90
15676;DHT22;7938;47.666;9.434;2023-07-31T05:15:11;15.50;99.90
15676;DHT22;7938;47.666;9.434;2023-07-31T05:17:38;15.60;99.90
15676;DHT22;7938;47.666;9.434;2023-07-31T05:20:06;15.80;99.90
15676;DHT22;7938;47.666;9.434;2023-07-31T05:22:34;15.90;99.90
15676;DHT22;7938;47.666;9.434;2023-07-31T05:25:01;16.00;99.90
15676;DHT22;7938;47.666;9.434;2023-07-31T05:27:31;16.00;99.90
15676;DHT22;7938;47.666;9.434;2023-07-31T05:29:58;16.10;99.90
15676;DHT22;7938;47.666;9.434;2023-07-31T05:32:24;16.20;99.90
15676;DHT22;7938;47.666;9.434;2023-07-31T05:34:52;16.40;99.90
15676;DHT22;7938;47.666;9.434;2023-07-31T05:37:19;16.50;99.90
15676;DHT22;7938;47.666;9.434;2023-07-31T05:39:46;16.70;99.90
15676;DHT22;7938;47.666;9.434;2023-07-31T05:42:12;16.80;99.90
15676;DHT22;7938;47.666;9.434;2023-07-31T05:44:41;16.80;99.90
15676;DHT22;7938;47.666;9.434;2023-07-31T05:47:07;16.90;99.90
15676;DHT22;7938;47.666;9.434;2023-07-31T05:49:34;17.00;99.90
15676;DHT22;7938;47.666;9.434;2023-07-31T05:52:01;17.00;99.90
15676;DHT22;7938;47.666;9.434;2023-07-31T05:54:28;17.00;99.90
15676;DHT22;7938;47.666;9.434;2023-07-31T05:56:55;17.10;99.90
15676;DHT22;7938;47.666;9.434;2023-07-31T05:59:22;17.20;99.90
15676;DHT22;7938;47.666;9.434;2023-07-31T06:01:50;17.40;99.90
15676;DHT22;7938;47.666;9.434;2023-07-31T06:04:17;17.40;99.90
15676;DHT22;7938;47.666;9.434;2023-07-31T06:06:43;17.40;99.90
15676;DHT22;7938;47.666;9.434;2023-07-31T06:09:10;17.50;99.90
15676;DHT22;7938;47.666;9.434;2023-07-31T06:11:37;17.30;99.90
15676;DHT22;7938;47.666;9.434;2023-07-31T06:14:04;17.30;99.90
15676;DHT22;7938;47.666;9.434;2023-07-31T06:16:31;17.40;99.90
15676;DHT22;7938;47.666;9.434;2023-07-31T06:18:59;17.60;99.90
15676;DHT22;7938;47.666;9.434;2023-07-31T06:21:26;17.60;99.90
15676;DHT22;7938;47.666;9.434;2023-07-31T06:23:53;17.60;99.90
15676;DHT22;7938;47.666;9.434;2023-07-31T06:26:19;17.60;99.90
15676;DHT22;7938;47.666;9.434;2023-07-31T06:28:48;17.60;99.90
15676;DHT22;7938;47.666;9.434;2023-07-31T06:31:15;17.70;99.90
15676;DHT22;7938;47.666;9.434;2023-07-31T06:33:45;18.00;99.90
15676;DHT22;7938;47.666;9.434;2023-07-31T06:36:14;18.10;99.90
15676;DHT22;7938;47.666;9.434;2023-07-31T06:38:40;18.40;99.90
15676;DHT22;7938;47.666;9.434;2023-07-31T06:41:07;18.50;99.90
15676;DHT22;7938;47.666;9.434;2023-07-31T06:43:34;18.60;99.90
15676;DHT22;7938;47.666;9.434;2023-07-31T06:46:04;18.50;99.90
15676;DHT22;7938;47.666;9.434;2023-07-31T06:48:31;18.50;99.90
15676;DHT22;7938;47.666;9.434;2023-07-31T06:50:58;18.60;99.90
15676;DHT22;7938;47.666;9.434;2023-07-31T06:53:27;18.70;99.90
15676;DHT22;7938;47.666;9.434;2023-07-31T06:55:54;18.90;99.90
15676;DHT22;7938;47.666;9.434;2023-07-31T06:58:21;18.90;99.90
15676;DHT22;7938;47.666;9.434;2023-07-31T07:00:48;18.90;99.90
15676;DHT22;7938;47.666;9.434;2023-07-31T07:03:17;19.00;99.90
15676;DHT22;7938;47.666;9.434;2023-07-31T07:05:44;18.50;99.90
15676;DHT22;7938;47.666;9.434;2023-07-31T07:08:11;18.20;99.90
15676;DHT22;7938;47.666;9.434;2023-07-31T07:10:39;17.70;99.90
15676;DHT22;7938;47.666;9.434;2023-07-31T07:13:06;17.60;99.90
15676;DHT22;7938;47.666;9.434;2023-07-31T07:15:33;17.50;99.90
15676;DHT22;7938;47.666;9.434;2023-07-31T07:18:00;17.40;99.90
15676;DHT22;7938;47.666;9.434;2023-07-31T07:20:26;17.60;99.90
15676;DHT22;7938;47.666;9.434;2023-07-31T07:22:53;17.60;99.90
15676;DHT22;7938;47.666;9.434;2023-07-31T07:25:20;17.60;99.90
15676;DHT22;7938;47.666;9.434;2023-07-31T07:27:48;17.40;99.90
15676;DHT22;7938;47.666;9.434;2023-07-31T07:30:15;17.90;99.90
15676;DHT22;7938;47.666;9.434;2023-07-31T07:32:43;18.30;99.90
15676;DHT22;7938;47.666;9.434;2023-07-31T07:35:10;18.80;99.90
15676;DHT22;7938;47.666;9.434;2023-07-31T07:37:36;19.10;99.90
15676;DHT22;7938;47.666;9.434;2023-07-31T07:40:04;19.20;99.90
15676;DHT22;7938;47.666;9.434;2023-07-31T07:42:31;19.10;99.90
15676;DHT22;7938;47.666;9.434;2023-07-31T07:44:59;19.50;99.90
15676;DHT22;7938;47.666;9.434;2023-07-31T07:47:26;19.70;99.90
15676;DHT22;7938;47.666;9.434;2023-07-31T07:49:53;19.70;99.90
15676;DHT22;7938;47.666;9.434;2023-07-31T07:52:20;19.60;99.90
15676;DHT22;7938;47.666;9.434;2023-07-31T07:54:47;19.80;99.90
15676;DHT22;7938;47.666;9.434;2023-07-31T07:57:14;19.80;99.90
15676;DHT22;7938;47.666;9.434;2023-07-31T07:59:40;20.20;99.90
15676;DHT22;7938;47.666;9.434;2023-07-31T08:02:09;20.10;99.30
15676;DHT22;7938;47.666;9.434;2023-07-31T08:04:36;20.00;99.20
15676;DHT22;7938;47.666;9.434;2023-07-31T08:07:03;20.10;99.60
15676;DHT22;7938;47.666;9.434;2023-07-31T08:09:30;20.40;99.20
15676;DHT22;7938;47.666;9.434;2023-07-31T08:11:57;20.30;98.60
15676;DHT22;7938;47.666;9.434;2023-07-31T08:14:27;20.40;99.20
15676;DHT22;7938;47.666;9.434;2023-07-31T08:16:54;20.40;99.30
15676;DHT22;7938;47.666;9.434;2023-07-31T08:19:22;20.50;98.70
15676;DHT22;7938;47.666;9.434;2023-07-31T08:21:49;20.30;99.00
15676;DHT22;7938;47.666;9.434;2023-07-31T08:24:16;20.30;98.00
15676;DHT22;7938;47.666;9.434;2023-07-31T08:26:43;20.40;98.30
15676;DHT22;7938;47.666;9.434;2023-07-31T08:29:09;20.40;98.40
15676;DHT22;7938;47.666;9.434;2023-07-31T08:31:36;20.30;97.90
15676;DHT22;7938;47.666;9.434;2023-07-31T08:34:03;20.00;98.50
15676;DHT22;7938;47.666;9.434;2023-07-31T08:36:31;19.90;98.60
15676;DHT22;7938;47.666;9.434;2023-07-31T08:38:58;19.90;99.00
15676;DHT22;7938;47.666;9.434;2023-07-31T08:41:25;20.00;99.00
15676;DHT22;7938;47.666;9.434;2023-07-31T08:43:53;20.10;99.30
15676;DHT22;7938;47.666;9.434;2023-07-31T08:46:21;20.30;98.80
15676;DHT22;7938;47.666;9.434;2023-07-31T08:48:49;20.30;97.40
15676;DHT22;7938;47.666;9.434;2023-07-31T08:51:18;20.10;97.30
15676;DHT22;7938;47.666;9.434;2023-07-31T08:53:47;19.90;97.60
15676;DHT22;7938;47.666;9.434;2023-07-31T08:56:15;19.60;98.20
15676;DHT22;7938;47.666;9.434;2023-07-31T08:58:43;19.60;97.80
15676;DHT22;7938;47.666;9.434;2023-07-31T09:01:11;20.10;97.30
15676;DHT22;7938;47.666;9.434;2023-07-31T09:03:39;20.00;98.00
15676;DHT22;7938;47.666;9.434;2023-07-31T09:06:07;20.20;98.30
15676;DHT22;7938;47.666;9.434;2023-07-31T09:08:35;20.20;97.70
15676;DHT22;7938;47.666;9.434;2023-07-31T09:11:05;20.20;98.50
15676;DHT22;7938;47.666;9.434;2023-07-31T09:13:32;20.30;98.50
15676;DHT22;7938;47.666;9.434;2023-07-31T09:15:59;20.40;98.30
15676;DHT22;7938;47.666;9.434;2023-07-31T09:18:25;20.40;98.20
15676;DHT22;7938;47.666;9.434;2023-07-31T09:21:03;20.40;97.10
15676;DHT22;7938;47.666;9.434;2023-07-31T09:23:40;20.30;97.20
15676;DHT22;7938;47.666;9.434;2023-07-31T09:26:09;20.40;97.40
15676;DHT22;7938;47.666;9.434;2023-07-31T09:28:36;20.40;96.40
15676;DHT22;7938;47.666;9.434;2023-07-31T09:31:03;20.50;97.10
15676;DHT22;7938;47.666;9.434;2023-07-31T09:33:30;20.60;97.50
15676;DHT22;7938;47.666;9.434;2023-07-31T09:35:59;20.80;96.70
15676;DHT22;7938;47.666;9.434;2023-07-31T09:38:27;21.10;97.30
15676;DHT22;7938;47.666;9.434;2023-07-31T09:40:54;21.30;96.20
15676;DHT22;7938;47.666;9.434;2023-07-31T09:43:22;21.40;95.60
15676;DHT22;7938;47.666;9.434;2023-07-31T09:45:55;21.60;94.60
15676;DHT22;7938;47.666;9.434;2023-07-31T09:48:23;21.30;94.70
15676;DHT22;7938;47.666;9.434;2023-07-31T09:50:53;21.00;95.20
15676;DHT22;7938;47.666;9.434;2023-07-31T09:53:28;20.90;94.90
15676;DHT22;7938;47.666;9.434;2023-07-31T09:55:58;20.70;96.50
15676;DHT22;7938;47.666;9.434;2023-07-31T09:58:29;20.80;95.60
15676;DHT22;7938;47.666;9.434;2023-07-31T10:00:57;20.80;95.70
15676;DHT22;7938;47.666;9.434;2023-07-31T10:03:25;20.90;95.90
15676;DHT22;7938;47.666;9.434;2023-07-31T10:05:53;20.90;96.80
15676;DHT22;7938;47.666;9.434;2023-07-31T10:08:27;21.20;96.40
15676;DHT22;7938;47.666;9.434;2023-07-31T10:10:58;21.20;95.80
15676;DHT22;7938;47.666;9.434;2023-07-31T10:13:27;21.20;96.20
15676;DHT22;7938;47.666;9.434;2023-07-31T10:15:59;21.30;96.10
15676;DHT22;7938;47.666;9.434;2023-07-31T10:18:26;21.40;95.10
15676;DHT22;7938;47.666;9.434;2023-07-31T10:20:54;21.40;96.20
15676;DHT22;7938;47.666;9.434;2023-07-31T10:23:22;21.50;95.00
15676;DHT22;7938;47.666;9.434;2023-07-31T10:25:51;21.30;94.40
15676;DHT22;7938;47.666;9.434;2023-07-31T10:28:20;21.30;94.60
15676;DHT22;7938;47.666;9.434;2023-07-31T10:30:49;21.20;95.70
15676;DHT22;7938;47.666;9.434;2023-07-31T10:33:17;21.30;95.70
15676;DHT22;7938;47.666;9.434;2023-07-31T10:35:46;21.40;94.90
15676;DHT22;7938;47.666;9.434;2023-07-31T10:38:13;21.30;94.70
15676;DHT22;7938;47.666;9.434;2023-07-31T10:40:40;21.40;94.20
15676;DHT22;7938;47.666;9.434;2023-07-31T10:43:08;21.40;94.60
15676;DHT22;7938;47.666;9.434;2023-07-31T10:45:38;21.30;94.90
15676;DHT22;7938;47.666;9.434;2023-07-31T10:48:12;21.40;94.60
15676;DHT22;7938;47.666;9.434;2023-07-31T10:50:49;21.50;94.60
15676;DHT22;7938;47.666;9.434;2023-07-31T10:53:23;21.50;95.30
15676;DHT22;7938;47.666;9.434;2023-07-31T10:55:52;21.40;95.00
15676;DHT22;7938;47.666;9.434;2023-07-31T10:58:20;21.40;94.40
15676;DHT22;7938;47.666;9.434;2023-07-31T11:00:47;21.50;94.90
15676;DHT22;7938;47.666;9.434;2023-07-31T11:03:17;21.70;95.90
15676;DHT22;7938;47.666;9.434;2023-07-31T11:05:47;21.80;95.50
15676;DHT22;7938;47.666;9.434;2023-07-31T11:08:17;21.90;95.30
15676;DHT22;7938;47.666;9.434;2023-07-31T11:10:46;21.80;95.00
15676;DHT22;7938;47.666;9.434;2023-07-31T11:13:13;21.80;95.10
15676;DHT22;7938;47.666;9.434;2023-07-31T11:15:40;21.90;94.50
15676;DHT22;7938;47.666;9.434;2023-07-31T11:18:07;22.10;94.40
15676;DHT22;7938;47.666;9.434;2023-07-31T11:20:38;22.30;94.20
15676;DHT22;7938;47.666;9.434;2023-07-31T11:23:07;22.30;94.60
15676;DHT22;7938;47.666;9.434;2023-07-31T11:25:36;22.40;94.90
15676;DHT22;7938;47.666;9.434;2023-07-31T11:28:04;22.50;94.60
15676;DHT22;7938;47.666;9.434;2023-07-31T11:30:31;22.60;94.00
15676;DHT22;7938;47.666;9.434;2023-07-31T11:33:00;22.60;94.20
15676;DHT22;7938;47.666;9.434;2023-07-31T11:35:28;22.70;94.40
15676;DHT22;7938;47.666;9.434;2023-07-31T11:37:57;22.80;93.60
15676;DHT22;7938;47.666;9.434;2023-07-31T11:40:23;22.90;93.40
15676;DHT22;7938;47.666;9.434;2023-07-31T11:42:55;22.90;94.00
15676;DHT22;7938;47.666;9.434;2023-07-31T11:45:25;22.80;92.60
15676;DHT22;7938;47.666;9.434;2023-07-31T11:47:52;22.60;93.20
15676;DHT22;7938;47.666;9.434;2023-07-31T11:50:20;22.90;93.10
15676;DHT22;7938;47.666;9.434;2023-07-31T11:52:48;22.90;92.90
15676;DHT22;7938;47.666;9.434;2023-07-31T11:55:18;22.80;92.80
15676;DHT22;7938;47.666;9.434;2023-07-31T11:57:45;23.20;93.10
15676;DHT22;7938;47.666;9.434;2023-07-31T12:00:14;23.30;93.30
15676;DHT22;7938;47.666;9.434;2023-07-31T12:02:42;23.70;92.30
15676;DHT22;7938;47.666;9.434;2023-07-31T12:05:11;24.00;92.10
15676;DHT22;7938;47.666;9.434;2023-07-31T12:07:46;24.40;91.90
15676;DHT22;7938;47.666;9.434;2023-07-31T12:10:24;25.70;90.10
15676;DHT22;7938;47.666;9.434;2023-07-31T12:12:59;24.90;90.00
15676;DHT22;7938;47.666;9.434;2023-07-31T12:15:35;25.00;89.50
15676;DHT22;7938;47.666;9.434;2023-07-31T12:18:04;25.30;90.30
15676;DHT22;7938;47.666;9.434;2023-07-31T12:20:32;25.30;87.10
15676;DHT22;7938;47.666;9.434;2023-07-31T12:22:59;25.20;87.20
15676;DHT22;7938;47.666;9.434;2023-07-31T12:25:32;25.20;88.40
15676;DHT22;7938;47.666;9.434;2023-07-31T12:28:05;25.60;88.00
15676;DHT22;7938;47.666;9.434;2023-07-31T12:30:37;25.10;84.80
15676;DHT22;7938;47.666;9.434;2023-07-31T12:33:13;25.10;85.50
15676;DHT22;7938;47.666;9.434;2023-07-31T12:35:43;25.20;85.30
15676;DHT22;7938;47.666;9.434;2023-07-31T12:38:11;24.60;85.00
15676;DHT22;7938;47.666;9.434;2023-07-31T12:40:40;24.90;86.50
15676;DHT22;7938;47.666;9.434;2023-07-31T12:43:08;25.00;87.20
15676;DHT22;7938;47.666;9.434;2023-07-31T12:45:35;25.00;85.60
15676;DHT22;7938;47.666;9.434;2023-07-31T12:48:02;24.70;89.30
15676;DHT22;7938;47.666;9.434;2023-07-31T12:50:29;25.20;86.50
15676;DHT22;7938;47.666;9.434;2023-07-31T12:52:56;25.20;87.00
15676;DHT22;7938;47.666;9.434;2023-07-31T12:55:23;25.40;87.70
15676;DHT22;7938;47.666;9.434;2023-07-31T12:57:51;25.50;84.80
15676;DHT22;7938;47.666;9.434;2023-07-31T13:00:18;25.60;84.10
15676;DHT22;7938;47.666;9.434;2023-07-31T13:02:45;25.50;85.00
15676;DHT22;7938;47.666;9.434;2023-07-31T13:05:12;25.40;85.70
15676;DHT22;7938;47.666;9.434;2023-07-31T13:07:39;25.70;84.90
15676;DHT22;7938;47.666;9.434;2023-07-31T13:10:07;25.90;84.40
15676;DHT22;7938;47.666;9.434;2023-07-31T13:12:34;25.70;82.90
15676;DHT22;7938;47.666;9.434;2023-07-31T13:15:03;25.50;82.30
15676;DHT22;7938;47.666;9.434;2023-07-31T13:17:30;25.50;84.40
15676;DHT22;7938;47.666;9.434;2023-07-31T13:19:57;25.40;82.80
15676;DHT22;7938;47.666;9.434;2023-07-31T13:22:24;25.60;83.50
15676;DHT22;7938;47.666;9.434;2023-07-31T13:24:51;25.80;85.00
15676;DHT22;7938;47.666;9.434;2023-07-31T13:27:18;26.20;81.80
15676;DHT22;7938;47.666;9.434;2023-07-31T13:29:47;26.40;82.20
15676;DHT22;7938;47.666;9.434;2023-07-31T13:32:15;26.20;80.00
15676;DHT22;7938;47.666;9.434;2023-07-31T13:34:42;26.10;76.20
15676;DHT22;7938;47.666;9.434;2023-07-31T13:37:09;26.30;77.10
15676;DHT22;7938;47.666;9.434;2023-07-31T13:39:36;26.60;76.70
15676;DHT22;7938;47.666;9.434;2023-07-31T13:42:04;26.20;78.20
15676;DHT22;7938;47.666;9.434;2023-07-31T13:44:32;26.30;78.30
15676;DHT22;7938;47.666;9.434;2023-07-31T13:46:59;26.90;76.20
15676;DHT22;7938;47.666;9.434;2023-07-31T13:49:28;26.70;77.10
15676;DHT22;7938;47.666;9.434;2023-07-31T13:51:55;26.50;77.20
15676;DHT22;7938;47.666;9.434;2023-07-31T13:54:22;26.40;78.70
15676;DHT22;7938;47.666;9.434;2023-07-31T13:56:49;26.30;79.00
15676;DHT22;7938;47.666;9.434;2023-07-31T13:59:16;26.10;79.80
15676;DHT22;7938;47.666;9.434;2023-07-31T14:01:44;26.10;80.50
15676;DHT22;7938;47.666;9.434;2023-07-31T14:04:11;26.00;81.10
15676;DHT22;7938;47.666;9.434;2023-07-31T14:06:39;26.10;83.30
15676;DHT22;7938;47.666;9.434;2023-07-31T14:09:06;26.40;82.90
15676;DHT22;7938;47.666;9.434;2023-07-31T14:11:34;26.80;80.80
15676;DHT22;7938;47.666;9.434;2023-07-31T14:14:01;27.50;78.60
15676;DHT22;7938;47.666;9.434;2023-07-31T14:16:29;28.50;77.10
15676;DHT22;7938;47.666;9.434;2023-07-31T14:18:55;29.00;75.70
15676;DHT22;7938;47.666;9.434;2023-07-31T14:21:24;29.50;75.80
15676;DHT22;7938;47.666;9.434;2023-07-31T14:23:53;30.00;73.20
15676;DHT22;7938;47.666;9.434;2023-07-31T14:26:20;30.00;73.30
15676;DHT22;7938;47.666;9.434;2023-07-31T14:28:47;29.40;76.40
15676;DHT22;7938;47.666;9.434;2023-07-31T14:31:14;29.70;73.60
15676;DHT22;7938;47.666;9.434;2023-07-31T14:33:41;30.80;71.90
15676;DHT22;7938;47.666;9.434;2023-07-31T14:36:08;29.30;73.80
15676;DHT22;7938;47.666;9.434;2023-07-31T14:38:35;29.00;75.60
15676;DHT22;7938;47.666;9.434;2023-07-31T14:41:03;29.40;76.00
15676;DHT22;7938;47.666;9.434;2023-07-31T14:43:30;29.40;76.70
15676;DHT22;7938;47.666;9.434;2023-07-31T14:45:57;29.20;75.50
15676;DHT22;7938;47.666;9.434;2023-07-31T14:48:25;28.50;76.10
15676;DHT22;7938;47.666;9.434;2023-07-31T14:50:54;29.50;74.30
15676;DHT22;7938;47.666;9.434;2023-07-31T14:53:21;30.10;71.10
15676;DHT22;7938;47.666;9.434;2023-07-31T14:55:48;29.40;75.50
15676;DHT22;7938;47.666;9.434;2023-07-31T14:58:17;29.10;74.30
15676;DHT22;7938;47.666;9.434;2023-07-31T15:00:43;29.50;73.70
15676;DHT22;7938;47.666;9.434;2023-07-31T15:03:10;30.60;73.40
15676;DHT22;7938;47.666;9.434;2023-07-31T15:05:37;31.80;69.40
15676;DHT22;7938;47.666;9.434;2023-07-31T15:08:04;32.30;68.00
15676;DHT22;7938;47.666;9.434;2023-07-31T15:10:32;30.90;69.20
15676;DHT22;7938;47.666;9.434;2023-07-31T15:12:58;30.80;69.50
15676;DHT22;7938;47.666;9.434;2023-07-31T15:15:28;29.10;70.60
15676;DHT22;7938;47.666;9.434;2023-07-31T15:17:55;28.20;71.20
15676;DHT22;7938;47.666;9.434;2023-07-31T15:20:22;27.70;74.20
15676;DHT22;7938;47.666;9.434;2023-07-31T15:22:49;27.60;74.20
15676;DHT22;7938;47.666;9.434;2023-07-31T15:25:16;27.80;77.80
15676;DHT22;7938;47.666;9.434;2023-07-31T15:27:43;27.70;80.30
15676;DHT22;7938;47.666;9.434;2023-07-31T15:30:10;27.90;77.20
15676;DHT22;7938;47.666;9.434;2023-07-31T15:32:38;27.80;76.50
15676;DHT22;7938;47.666;9.434;2023-07-31T15:35:06;27.40;77.70
15676;DHT22;7938;47.666;9.434;2023-07-31T15:37:33;27.50;79.40
15676;DHT22;7938;47.666;9.434;2023-07-31T15:40:00;27.10;80.40
15676;DHT22;7938;47.666;9.434;2023-07-31T15:42:27;26.90;76.50
15676;DHT22;7938;47.666;9.434;2023-07-31T15:44:54;26.60;77.60
15676;DHT22;7938;47.666;9.434;2023-07-31T15:47:20;27.00;78.30
15676;DHT22;7938;47.666;9.434;2023-07-31T15:49:49;27.10;78.00
15676;DHT22;7938;47.666;9.434;2023-07-31T15:52:15;26.90;78.40
15676;DHT22;7938;47.666;9.434;2023-07-31T15:54:42;26.70;76.60
15676;DHT22;7938;47.666;9.434;2023-07-31T15:57:09;26.40;78.10
15676;DHT22;7938;47.666;9.434;2023-07-31T15:59:36;26.10;79.20
15676;DHT22;7938;47.666;9.434;2023-07-31T16:02:03;26.30;77.60
15676;DHT22;7938;47.666;9.434;2023-07-31T16:04:30;26.60;78.50
15676;DHT22;7938;47.666;9.434;2023-07-31T16:06:58;26.80;78.10
15676;DHT22;7938;47.666;9.434;2023-07-31T16:09:25;27.20;82.30
15676;DHT22;7938;47.666;9.434;2023-07-31T16:11:52;27.70;81.50
15676;DHT22;7938;47.666;9.434;2023-07-31T16:14:19;27.20;82.60
15676;DHT22;7938;47.666;9.434;2023-07-31T16:16:46;27.10;85.00
15676;DHT22;7938;47.666;9.434;2023-07-31T16:19:13;26.90;87.00
15676;DHT22;7938;47.666;9.434;2023-07-31T16:21:40;25.90;87.30
15676;DHT22;7938;47.666;9.434;2023-07-31T16:24:08;26.00;89.40
15676;DHT22;7938;47.666;9.434;2023-07-31T16:26:35;26.00;89.30
15676;DHT22;7938;47.666;9.434;2023-07-31T16:29:02;26.10;88.00
15676;DHT22;7938;47.666;9.434;2023-07-31T16:31:28;27.20;87.70
15676;DHT22;7938;47.666;9.434;2023-07-31T16:33:55;28.10;86.70
15676;DHT22;7938;47.666;9.434;2023-07-31T16:36:24;29.10;81.70
15676;DHT22;7938;47.666;9.434;2023-07-31T16:38:50;29.10;80.60
15676;DHT22;7938;47.666;9.434;2023-07-31T16:41:20;29.20;80.10
15676;DHT22;7938;47.666;9.434;2023-07-31T16:43:51;28.80;81.30
15676;DHT22;7938;47.666;9.434;2023-07-31T16:46:18;28.20;82.50
15676;DHT22;7938;47.666;9.434;2023-07-31T16:48:45;27.60;85.50
15676;DHT22;7938;47.666;9.434;2023-07-31T16:51:12;27.00;87.30
15676;DHT22;7938;47.666;9.434;2023-07-31T16:53:39;27.20;87.00
15676;DHT22;7938;47.666;9.434;2023-07-31T16:56:06;27.20;88.20
15676;DHT22;7938;47.666;9.434;2023-07-31T16:58:34;28.20;85.10
15676;DHT22;7938;47.666;9.434;2023-07-31T17:01:02;27.90;82.80
15676;DHT22;7938;47.666;9.434;2023-07-31T17:03:29;27.80;83.00
15676;DHT22;7938;47.666;9.434;2023-07-31T17:05:56;28.50;83.80
15676;DHT22;7938;47.666;9.434;2023-07-31T17:08:23;28.60;82.40
15676;DHT22;7938;47.666;9.434;2023-07-31T17:10:50;28.70;82.90
15676;DHT22;7938;47.666;9.434;2023-07-31T17:13:17;28.80;83.10
15676;DHT22;7938;47.666;9.434;2023-07-31T17:15:45;29.10;83.50
15676;DHT22;7938;47.666;9.434;2023-07-31T17:18:12;29.50;82.20
15676;DHT22;7938;47.666;9.434;2023-07-31T17:20:40;29.20;82.30
15676;DHT22;7938;47.666;9.434;2023-07-31T17:23:07;29.30;83.40
15676;DHT22;7938;47.666;9.434;2023-07-31T17:25:33;30.10;81.50
15676;DHT22;7938;47.666;9.434;2023-07-31T17:28:00;29.70;79.70
15676;DHT22;7938;47.666;9.434;2023-07-31T17:30:27;27.70;82.70
15676;DHT22;7938;47.666;9.434;2023-07-31T17:32:55;26.90;83.40
15676;DHT22;7938;47.666;9.434;2023-07-31T17:35:22;26.90;84.00
15676;DHT22;7938;47.666;9.434;2023-07-31T17:37:49;26.50;85.40
15676;DHT22;7938;47.666;9.434;2023-07-31T17:40:16;25.90;87.20
15676;DHT22;7938;47.666;9.434;2023-07-31T17:42:43;25.30;90.10
15676;DHT22;7938;47.666;9.434;2023-07-31T17:45:12;25.30;90.00
15676;DHT22;7938;47.666;9.434;2023-07-31T17:47:39;25.40;90.20
15676;DHT22;7938;47.666;9.434;2023-07-31T17:50:08;25.20;90.30
15676;DHT22;7938;47.666;9.434;2023-07-31T17:52:35;24.90;90.40
15676;DHT22;7938;47.666;9.434;2023-07-31T17:55:03;24.70;91.20
15676;DHT22;7938;47.666;9.434;2023-07-31T17:57:29;24.50;90.80
15676;DHT22;7938;47.666;9.434;2023-07-31T17:59:56;24.20;91.90
15676;DHT22;7938;47.666;9.434;2023-07-31T18:02:23;24.10;91.70
15676;DHT22;7938;47.666;9.434;2023-07-31T18:04:50;24.00;91.90
15676;DHT22;7938;47.666;9.434;2023-07-31T18:07:18;23.70;92.10
15676;DHT22;7938;47.666;9.434;2023-07-31T18:09:45;23.70;92.70
15676;DHT22;7938;47.666;9.434;2023-07-31T18:12:12;23.60;92.60
15676;DHT22;7938;47.666;9.434;2023-07-31T18:14:42;23.60;92.80
15676;DHT22;7938;47.666;9.434;2023-07-31T18:17:09;23.60;93.30
15676;DHT22;7938;47.666;9.434;2023-07-31T18:19:37;23.50;93.90
15676;DHT22;7938;47.666;9.434;2023-07-31T18:22:04;23.20;94.40
15676;DHT22;7938;47.666;9.434;2023-07-31T18:24:32;23.10;94.60
15676;DHT22;7938;47.666;9.434;2023-07-31T18:26:59;22.80;95.50
15676;DHT22;7938;47.666;9.434;2023-07-31T18:29:27;22.70;95.30
15676;DHT22;7938;47.666;9.434;2023-07-31T18:31:54;22.60;95.10
15676;DHT22;7938;47.666;9.434;2023-07-31T18:34:21;22.60;95.30
15676;DHT22;7938;47.666;9.434;2023-07-31T18:36:48;22.50;95.90
15676;DHT22;7938;47.666;9.434;2023-07-31T18:39:15;22.40;96.00
15676;DHT22;7938;47.666;9.434;2023-07-31T18:41:44;22.30;96.10
15676;DHT22;7938;47.666;9.434;2023-07-31T18:44:11;22.20;95.60
15676;DHT22;7938;47.666;9.434;2023-07-31T18:46:41;22.10;95.80
15676;DHT22;7938;47.666;9.434;2023-07-31T18:49:08;21.90;97.80
15676;DHT22;7938;47.666;9.434;2023-07-31T18:51:35;21.80;98.80
15676;DHT22;7938;47.666;9.434;2023-07-31T18:54:04;21.70;99.20
15676;DHT22;7938;47.666;9.434;2023-07-31T18:56:31;21.60;98.30
15676;DHT22;7938;47.666;9.434;2023-07-31T18:59:00;21.50;98.90
15676;DHT22;7938;47.666;9.434;2023-07-31T19:01:27;21.40;98.80
15676;DHT22;7938;47.666;9.434;2023-07-31T19:03:54;21.40;99.50
15676;DHT22;7938;47.666;9.434;2023-07-31T19:06:21;21.40;99.70
15676;DHT22;7938;47.666;9.434;2023-07-31T19:08:48;21.30;99.90
15676;DHT22;7938;47.666;9.434;2023-07-31T19:11:15;21.20;99.90
15676;DHT22;7938;47.666;9.434;2023-07-31T19:13:42;21.20;99.90
15676;DHT22;7938;47.666;9.434;2023-07-31T19:18:39;21.00;99.90
15676;DHT22;7938;47.666;9.434;2023-07-31T19:21:06;21.00;99.90
15676;DHT22;7938;47.666;9.434;2023-07-31T19:23:33;20.90;99.90
15676;DHT22;7938;47.666;9.434;2023-07-31T19:25:59;20.90;99.90
15676;DHT22;7938;47.666;9.434;2023-07-31T19:28:26;20.90;99.90
15676;DHT22;7938;47.666;9.434;2023-07-31T19:30:53;20.80;99.90
15676;DHT22;7938;47.666;9.434;2023-07-31T19:33:21;20.80;99.90
15676;DHT22;7938;47.666;9.434;2023-07-31T19:35:53;20.80;99.90
15676;DHT22;7938;47.666;9.434;2023-07-31T19:38:21;20.60;99.90
15676;DHT22;7938;47.666;9.434;2023-07-31T19:40:48;20.50;99.90
15676;DHT22;7938;47.666;9.434;2023-07-31T19:43:15;20.50;99.90
15676;DHT22;7938;47.666;9.434;2023-07-31T19:45:41;20.40;99.90
15676;DHT22;7938;47.666;9.434;2023-07-31T19:48:09;20.40;99.90
15676;DHT22;7938;47.666;9.434;2023-07-31T19:50:37;20.40;99.90